sensor_id;sensor_type;location;lat;lon;timestamp;pressure;altitude;pressure_sealevel;temperature;humidity
32243;BME280;18731;42.830;24.390;2023-03-26T03:02:42;93985.41;;;10.60;80.57
32243;BME280;18731;42.830;24.390;2023-03-26T03:05:12;93991.84;;;10.59;81.06
32243;BME280;18731;42.830;24.390;2023-03-26T03:07:38;93988.22;;;10.51;81.93
32243;BME280;18731;42.830;24.390;2023-03-26T03:10:05;93975.22;;;10.50;80.90
32243;BME280;18731;42.830;24.390;2023-03-26T03:12:33;94006.31;;;10.58;80.61
32243;BME280;18731;42.830;24.390;2023-03-26T03:14:59;93999.09;;;10.58;80.71
32243;BME280;18731;42.830;24.390;2023-03-26T03:17:25;93999.00;;;10.55;81.49
32243;BME280;18731;42.830;24.390;2023-03-26T03:19:51;93994.31;;;10.52;80.57
32243;BME280;18731;42.830;24.390;2023-03-26T03:22:17;94009.22;;;10.53;79.93
32243;BME280;18731;42.830;24.390;2023-03-26T03:24:42;94008.44;;;10.52;75.59
32243;BME280;18731;42.830;24.390;2023-03-26T03:27:08;94018.59;;;10.47;75.31
32243;BME280;18731;42.830;24.390;2023-03-26T03:29:34;94021.81;;;10.40;72.86
32243;BME280;18731;42.830;24.390;2023-03-26T03:32:00;94027.16;;;10.28;72.80
32243;BME280;18731;42.830;24.390;2023-03-26T03:34:26;94020.59;;;10.13;73.32
32243;BME280;18731;42.830;24.390;2023-03-26T03:36:52;94021.50;;;10.05;71.90
32243;BME280;18731;42.830;24.390;2023-03-26T03:39:17;94031.41;;;9.92;72.93
32243;BME280;18731;42.830;24.390;2023-03-26T03:41:43;94027.06;;;9.88;73.30
32243;BME280;18731;42.830;24.390;2023-03-26T03:44:08;94025.06;;;9.97;72.89
32243;BME280;18731;42.830;24.390;2023-03-26T03:46:34;94032.16;;;9.93;75.08
32243;BME280;18731;42.830;24.390;2023-03-26T03:49:01;94029.38;;;10.02;73.79
32243;BME280;18731;42.830;24.390;2023-03-26T03:51:26;94027.50;;;10.02;74.25
32243;BME280;18731;42.830;24.390;2023-03-26T03:53:52;94026.59;;;10.10;73.30
32243;BME280;18731;42.830;24.390;2023-03-26T03:56:20;94027.16;;;10.16;74.86
32243;BME280;18731;42.830;24.390;2023-03-26T03:58:49;94024.59;;;10.19;71.36
32243;BME280;18731;42.830;24.390;2023-03-26T04:01:15;94024.38;;;10.12;71.67
32243;BME280;18731;42.830;24.390;2023-03-26T04:03:41;94019.06;;;10.00;73.06
32243;BME280;18731;42.830;24.390;2023-03-26T04:06:11;94012.84;;;9.84;71.99
32243;BME280;18731;42.830;24.390;2023-03-26T04:08:37;94037.50;;;9.93;70.65
32243;BME280;18731;42.830;24.390;2023-03-26T04:11:04;94031.72;;;9.79;73.10
32243;BME280;18731;42.830;24.390;2023-03-26T04:13:30;94041.72;;;9.57;72.24
32243;BME280;18731;42.830;24.390;2023-03-26T04:15:55;94043.03;;;9.51;71.95
32243;BME280;18731;42.830;24.390;2023-03-26T04:18:21;94042.78;;;9.32;74.88
32243;BME280;18731;42.830;24.390;2023-03-26T04:20:47;94054.31;;;9.24;68.65
32243;BME280;18731;42.830;24.390;2023-03-26T04:23:15;94062.94;;;9.21;70.35
32243;BME280;18731;42.830;24.390;2023-03-26T04:25:45;94056.59;;;9.13;68.51
32243;BME280;18731;42.830;24.390;2023-03-26T04:28:21;94061.34;;;9.08;66.39
32243;BME280;18731;42.830;24.390;2023-03-26T04:30:52;94066.81;;;9.11;69.24
32243;BME280;18731;42.830;24.390;2023-03-26T04:33:19;94085.44;;;9.11;70.34
32243;BME280;18731;42.830;24.390;2023-03-26T04:35:46;94084.69;;;9.23;69.64
32243;BME280;18731;42.830;24.390;2023-03-26T04:38:14;94093.03;;;9.21;70.84
32243;BME280;18731;42.830;24.390;2023-03-26T04:40:42;94087.19;;;9.07;70.82
32243;BME280;18731;42.830;24.390;2023-03-26T04:43:13;94104.44;;;9.22;70.46
32243;BME280;18731;42.830;24.390;2023-03-26T04:45:39;94104.13;;;9.23;69.97
32243;BME280;18731;42.830;24.390;2023-03-26T04:48:04;94090.94;;;9.27;67.94
32243;BME280;18731;42.830;24.390;2023-03-26T04:50:31;94104.94;;;9.36;68.94
32243;BME280;18731;42.830;24.390;2023-03-26T04:52:57;94121.81;;;9.40;68.94
32243;BME280;18731;42.830;24.390;2023-03-26T04:55:44;94113.63;;;9.45;70.19
32243;BME280;18731;42.830;24.390;2023-03-26T04:58:11;94124.28;;;9.45;69.17
32243;BME280;18731;42.830;24.390;2023-03-26T05:00:39;94126.72;;;9.50;69.12
32243;BME280;18731;42.830;24.390;2023-03-26T05:03:09;94117.38;;;9.44;65.55
32243;BME280;18731;42.830;24.390;2023-03-26T05:05:36;94123.06;;;9.55;66.84
32243;BME280;18731;42.830;24.390;2023-03-26T05:08:02;94122.31;;;9.54;69.93
32243;BME280;18731;42.830;24.390;2023-03-26T05:10:28;94125.53;;;9.60;72.60
32243;BME280;18731;42.830;24.390;2023-03-26T05:12:54;94129.53;;;9.66;72.08
32243;BME280;18731;42.830;24.390;2023-03-26T05:15:20;94125.97;;;9.62;72.09
32243;BME280;18731;42.830;24.390;2023-03-26T05:17:45;94108.00;;;9.59;71.61
32243;BME280;18731;42.830;24.390;2023-03-26T05:20:23;94130.66;;;9.77;68.38
32243;BME280;18731;42.830;24.390;2023-03-26T05:22:50;94141.78;;;9.91;69.34
32243;BME280;18731;42.830;24.390;2023-03-26T05:25:18;94138.38;;;10.03;69.56
32243;BME280;18731;42.830;24.390;2023-03-26T05:27:45;94148.47;;;10.10;67.92
32243;BME280;18731;42.830;24.390;2023-03-26T05:30:16;94145.47;;;10.11;67.45
32243;BME280;18731;42.830;24.390;2023-03-26T05:32:42;94133.25;;;9.98;65.54
32243;BME280;18731;42.830;24.390;2023-03-26T05:35:08;94150.34;;;9.97;66.23
32243;BME280;18731;42.830;24.390;2023-03-26T05:37:34;94142.34;;;9.85;65.65
32243;BME280;18731;42.830;24.390;2023-03-26T05:40:02;94145.34;;;9.83;65.94
32243;BME280;18731;42.830;24.390;2023-03-26T05:42:28;94148.34;;;9.82;64.17
32243;BME280;18731;42.830;24.390;2023-03-26T05:44:53;94142.09;;;9.78;64.94
32243;BME280;18731;42.830;24.390;2023-03-26T05:47:19;94143.66;;;9.79;61.14
32243;BME280;18731;42.830;24.390;2023-03-26T05:49:45;94148.75;;;9.72;63.88
32243;BME280;18731;42.830;24.390;2023-03-26T05:52:11;94143.84;;;9.61;64.15
32243;BME280;18731;42.830;24.390;2023-03-26T05:54:40;94160.28;;;9.63;63.85
32243;BME280;18731;42.830;24.390;2023-03-26T05:57:06;94147.91;;;9.47;61.49
32243;BME280;18731;42.830;24.390;2023-03-26T05:59:32;94151.16;;;9.52;60.76
32243;BME280;18731;42.830;24.390;2023-03-26T06:01:58;94101.53;;;9.15;61.79
32243;BME280;18731;42.830;24.390;2023-03-26T06:04:24;94141.41;;;9.56;61.83
32243;BME280;18731;42.830;24.390;2023-03-26T06:06:49;94150.31;;;9.73;60.22
32243;BME280;18731;42.830;24.390;2023-03-26T06:09:17;94158.41;;;9.64;59.67
32243;BME280;18731;42.830;24.390;2023-03-26T06:11:43;94155.53;;;9.69;59.93
32243;BME280;18731;42.830;24.390;2023-03-26T06:14:08;94158.81;;;9.99;58.12
32243;BME280;18731;42.830;24.390;2023-03-26T06:16:34;94157.72;;;10.12;58.59
32243;BME280;18731;42.830;24.390;2023-03-26T06:19:00;94148.47;;;10.10;55.11
32243;BME280;18731;42.830;24.390;2023-03-26T06:21:27;94143.53;;;10.45;57.30
32243;BME280;18731;42.830;24.390;2023-03-26T06:23:53;94147.94;;;10.77;55.75
32243;BME280;18731;42.830;24.390;2023-03-26T06:26:19;94143.66;;;11.01;55.81
32243;BME280;18731;42.830;24.390;2023-03-26T06:28:45;94145.72;;;11.19;53.32
32243;BME280;18731;42.830;24.390;2023-03-26T06:31:10;94146.09;;;11.34;54.17
32243;BME280;18731;42.830;24.390;2023-03-26T06:33:36;94130.47;;;11.20;54.38
32243;BME280;18731;42.830;24.390;2023-03-26T06:36:02;94138.13;;;11.49;53.96
32243;BME280;18731;42.830;24.390;2023-03-26T06:38:27;94111.78;;;11.64;51.81
32243;BME280;18731;42.830;24.390;2023-03-26T06:40:53;94134.59;;;11.89;51.02
32243;BME280;18731;42.830;24.390;2023-03-26T06:43:19;94126.50;;;12.01;51.51
32243;BME280;18731;42.830;24.390;2023-03-26T06:45:49;94141.78;;;12.16;50.75
32243;BME280;18731;42.830;24.390;2023-03-26T06:48:15;94139.50;;;12.34;50.23
32243;BME280;18731;42.830;24.390;2023-03-26T06:50:40;94137.06;;;12.61;50.70
32243;BME280;18731;42.830;24.390;2023-03-26T06:53:07;94147.88;;;12.83;49.16
32243;BME280;18731;42.830;24.390;2023-03-26T06:55:34;94130.47;;;12.74;49.00
32243;BME280;18731;42.830;24.390;2023-03-26T06:58:00;94133.16;;;12.93;48.84
32243;BME280;18731;42.830;24.390;2023-03-26T07:00:25;94130.06;;;12.56;47.15
32243;BME280;18731;42.830;24.390;2023-03-26T07:02:51;94114.75;;;12.06;47.76
32243;BME280;18731;42.830;24.390;2023-03-26T07:05:19;94129.16;;;12.01;48.47
32243;BME280;18731;42.830;24.390;2023-03-26T07:07:45;94125.81;;;12.20;48.16
32243;BME280;18731;42.830;24.390;2023-03-26T07:10:12;94130.84;;;12.56;47.13
32243;BME280;18731;42.830;24.390;2023-03-26T07:12:37;94132.00;;;12.40;47.08
32243;BME280;18731;42.830;24.390;2023-03-26T07:15:04;94140.28;;;12.35;48.37
32243;BME280;18731;42.830;24.390;2023-03-26T07:17:30;94140.03;;;12.40;46.93
32243;BME280;18731;42.830;24.390;2023-03-26T07:19:56;94132.44;;;12.42;48.72
32243;BME280;18731;42.830;24.390;2023-03-26T07:22:23;94136.97;;;12.57;46.92
32243;BME280;18731;42.830;24.390;2023-03-26T07:24:50;94139.81;;;12.64;47.50
32243;BME280;18731;42.830;24.390;2023-03-26T07:30:16;94135.97;;;12.81;46.21
32243;BME280;18731;42.830;24.390;2023-03-26T07:33:10;94131.91;;;13.22;45.77
32243;BME280;18731;42.830;24.390;2023-03-26T07:35:47;94099.56;;;12.96;45.78
32243;BME280;18731;42.830;24.390;2023-03-26T07:47:09;94114.94;;;14.22;41.40
32243;BME280;18731;42.830;24.390;2023-03-26T07:49:42;94117.06;;;14.12;40.94
32243;BME280;18731;42.830;24.390;2023-03-26T07:52:10;94111.59;;;14.05;41.49
32243;BME280;18731;42.830;24.390;2023-03-26T07:54:36;94107.66;;;14.45;42.06
32243;BME280;18731;42.830;24.390;2023-03-26T07:57:05;94069.91;;;14.38;40.78
32243;BME280;18731;42.830;24.390;2023-03-26T07:59:46;94099.63;;;14.75;44.20
32243;BME280;18731;42.830;24.390;2023-03-26T08:21:11;94122.47;;;15.18;38.23
32243;BME280;18731;42.830;24.390;2023-03-26T08:23:53;94114.41;;;14.88;38.95
32243;BME280;18731;42.830;24.390;2023-03-26T08:26:43;94114.31;;;15.11;37.35
32243;BME280;18731;42.830;24.390;2023-03-26T08:29:26;94101.59;;;15.41;37.14
32243;BME280;18731;42.830;24.390;2023-03-26T08:31:54;94105.94;;;15.50;36.73
32243;BME280;18731;42.830;24.390;2023-03-26T08:34:22;94094.53;;;14.96;37.38
32243;BME280;18731;42.830;24.390;2023-03-26T08:36:47;94082.28;;;14.99;37.33
32243;BME280;18731;42.830;24.390;2023-03-26T08:39:13;94112.63;;;14.99;37.54
32243;BME280;18731;42.830;24.390;2023-03-26T08:45:14;94111.47;;;15.30;37.72
32243;BME280;18731;42.830;24.390;2023-03-26T08:47:20;94102.00;;;15.43;39.95
32243;BME280;18731;42.830;24.390;2023-03-26T09:23:37;94094.47;;;15.56;33.73
32243;BME280;18731;42.830;24.390;2023-03-26T09:34:45;94075.31;;;15.98;34.08
32243;BME280;18731;42.830;24.390;2023-03-26T09:40:19;94064.97;;;16.00;33.29
32243;BME280;18731;42.830;24.390;2023-03-26T09:42:58;94071.38;;;16.33;33.83
32243;BME280;18731;42.830;24.390;2023-03-26T09:45:51;94079.59;;;16.54;31.78
32243;BME280;18731;42.830;24.390;2023-03-26T10:00:14;94058.22;;;16.83;32.82
32243;BME280;18731;42.830;24.390;2023-03-26T10:10:55;94054.88;;;17.07;32.05
32243;BME280;18731;42.830;24.390;2023-03-26T10:13:37;94052.56;;;17.09;33.14
32243;BME280;18731;42.830;24.390;2023-03-26T10:16:20;94034.78;;;16.90;31.12
32243;BME280;18731;42.830;24.390;2023-03-26T10:25:04;94024.19;;;17.58;31.11
32243;BME280;18731;42.830;24.390;2023-03-26T10:30:34;94024.41;;;16.99;31.63
32243;BME280;18731;42.830;24.390;2023-03-26T10:33:24;94012.88;;;16.99;32.43
32243;BME280;18731;42.830;24.390;2023-03-26T10:41:46;94012.63;;;17.54;32.29
32243;BME280;18731;42.830;24.390;2023-03-26T10:44:24;94015.78;;;17.77;29.40
32243;BME280;18731;42.830;24.390;2023-03-26T10:47:13;94008.44;;;17.88;29.17
32243;BME280;18731;42.830;24.390;2023-03-26T10:52:53;94000.25;;;17.31;30.19
32243;BME280;18731;42.830;24.390;2023-03-26T10:55:36;93991.34;;;17.17;30.74
32243;BME280;18731;42.830;24.390;2023-03-26T10:58:24;93996.81;;;17.49;31.62
32243;BME280;18731;42.830;24.390;2023-03-26T11:01:00;93982.59;;;17.73;29.50
32243;BME280;18731;42.830;24.390;2023-03-26T11:03:41;93974.09;;;17.57;31.30
32243;BME280;18731;42.830;24.390;2023-03-26T11:06:15;93969.44;;;17.40;29.37
32243;BME280;18731;42.830;24.390;2023-03-26T11:14:20;93965.25;;;17.95;28.73
32243;BME280;18731;42.830;24.390;2023-03-26T11:17:04;93955.59;;;18.30;30.54
32243;BME280;18731;42.830;24.390;2023-03-26T11:19:42;93946.72;;;18.29;29.21
32243;BME280;18731;42.830;24.390;2023-03-26T11:22:26;93933.59;;;18.07;30.25
32243;BME280;18731;42.830;24.390;2023-03-26T11:25:18;93943.25;;;18.18;29.82
32243;BME280;18731;42.830;24.390;2023-03-26T11:30:45;93933.19;;;18.33;29.41
32243;BME280;18731;42.830;24.390;2023-03-26T11:33:31;93928.63;;;17.94;29.80
32243;BME280;18731;42.830;24.390;2023-03-26T11:36:05;93923.22;;;17.80;29.94
32243;BME280;18731;42.830;24.390;2023-03-26T11:38:40;93941.72;;;17.89;30.07
32243;BME280;18731;42.830;24.390;2023-03-26T11:41:22;93939.38;;;18.30;30.89
32243;BME280;18731;42.830;24.390;2023-03-26T11:43:59;93938.97;;;18.39;29.87
32243;BME280;18731;42.830;24.390;2023-03-26T11:46:28;93931.50;;;18.82;30.97
32243;BME280;18731;42.830;24.390;2023-03-26T11:48:57;93932.06;;;18.27;29.46
32243;BME280;18731;42.830;24.390;2023-03-26T11:51:33;93930.94;;;17.85;29.86
32243;BME280;18731;42.830;24.390;2023-03-26T11:54:00;93915.53;;;17.72;30.66
32243;BME280;18731;42.830;24.390;2023-03-26T11:56:40;93927.84;;;18.01;29.65
32243;BME280;18731;42.830;24.390;2023-03-26T11:59:14;93909.19;;;18.53;28.87
32243;BME280;18731;42.830;24.390;2023-03-26T12:01:51;93923.53;;;18.36;27.80
32243;BME280;18731;42.830;24.390;2023-03-26T12:07:17;93911.59;;;18.29;27.40
32243;BME280;18731;42.830;24.390;2023-03-26T12:10:06;93898.41;;;18.49;28.72
32243;BME280;18731;42.830;24.390;2023-03-26T12:12:45;93896.94;;;18.30;28.79
32243;BME280;18731;42.830;24.390;2023-03-26T12:15:16;93896.13;;;18.37;27.88
32243;BME280;18731;42.830;24.390;2023-03-26T12:17:45;93898.38;;;18.53;27.79
32243;BME280;18731;42.830;24.390;2023-03-26T12:20:30;93884.31;;;18.97;27.78
32243;BME280;18731;42.830;24.390;2023-03-26T12:22:56;93878.25;;;19.34;26.82
32243;BME280;18731;42.830;24.390;2023-03-26T12:25:29;93879.31;;;19.47;28.33
32243;BME280;18731;42.830;24.390;2023-03-26T12:31:00;93868.41;;;19.06;26.72
32243;BME280;18731;42.830;24.390;2023-03-26T12:33:29;93866.59;;;18.89;26.36
32243;BME280;18731;42.830;24.390;2023-03-26T12:35:59;93866.75;;;19.23;26.52
32243;BME280;18731;42.830;24.390;2023-03-26T12:38:40;93851.09;;;18.97;25.33
32243;BME280;18731;42.830;24.390;2023-03-26T12:41:09;93845.41;;;19.36;25.81
32243;BME280;18731;42.830;24.390;2023-03-26T12:43:41;93866.44;;;19.14;24.31
32243;BME280;18731;42.830;24.390;2023-03-26T12:46:31;93871.13;;;19.06;27.58
32243;BME280;18731;42.830;24.390;2023-03-26T12:49:00;93860.75;;;19.53;24.43
32243;BME280;18731;42.830;24.390;2023-03-26T12:51:49;93856.88;;;19.54;21.74
32243;BME280;18731;42.830;24.390;2023-03-26T12:57:23;93860.16;;;19.27;23.20
32243;BME280;18731;42.830;24.390;2023-03-26T13:00:11;93847.69;;;19.37;23.49
32243;BME280;18731;42.830;24.390;2023-03-26T13:14:31;93844.59;;;20.21;23.26
32243;BME280;18731;42.830;24.390;2023-03-26T13:17:40;93843.72;;;20.31;23.41
32243;BME280;18731;42.830;24.390;2023-03-26T13:20:30;93831.84;;;19.84;23.40
32243;BME280;18731;42.830;24.390;2023-03-26T13:23:08;93826.34;;;19.91;23.27
32243;BME280;18731;42.830;24.390;2023-03-26T13:31:33;93785.47;;;18.89;23.75
32243;BME280;18731;42.830;24.390;2023-03-26T13:37:15;93833.00;;;19.38;22.74
32243;BME280;18731;42.830;24.390;2023-03-26T13:40:02;93818.75;;;19.79;20.26
32243;BME280;18731;42.830;24.390;2023-03-26T13:48:01;93815.03;;;19.62;22.12
32243;BME280;18731;42.830;24.390;2023-03-26T13:50:36;93828.84;;;19.26;22.39
32243;BME280;18731;42.830;24.390;2023-03-26T13:53:13;93830.56;;;19.54;21.48
32243;BME280;18731;42.830;24.390;2023-03-26T13:55:56;93834.34;;;19.64;22.30
32243;BME280;18731;42.830;24.390;2023-03-26T13:58:37;93828.66;;;19.48;22.96
32243;BME280;18731;42.830;24.390;2023-03-26T14:01:25;93818.94;;;19.57;22.74
32243;BME280;18731;42.830;24.390;2023-03-26T14:04:13;93825.31;;;19.33;22.67
32243;BME280;18731;42.830;24.390;2023-03-26T14:06:54;93821.09;;;19.28;22.84
32243;BME280;18731;42.830;24.390;2023-03-26T14:09:25;93822.94;;;19.39;21.98
32243;BME280;18731;42.830;24.390;2023-03-26T14:14:42;93820.03;;;19.15;22.77
32243;BME280;18731;42.830;24.390;2023-03-26T14:17:24;93808.09;;;19.99;22.49
32243;BME280;18731;42.830;24.390;2023-03-26T14:28:39;93816.06;;;21.04;22.17
32243;BME280;18731;42.830;24.390;2023-03-26T14:31:43;93809.16;;;21.73;21.16
32243;BME280;18731;42.830;24.390;2023-03-26T14:40:35;93801.69;;;20.50;22.27
32243;BME280;18731;42.830;24.390;2023-03-26T14:53:47;93796.66;;;18.91;25.38
32243;BME280;18731;42.830;24.390;2023-03-26T15:11:09;93799.13;;;16.81;28.30
32243;BME280;18731;42.830;24.390;2023-03-26T15:14:01;93794.41;;;16.42;29.41
32243;BME280;18731;42.830;24.390;2023-03-26T15:19:38;93807.41;;;15.53;30.81
32243;BME280;18731;42.830;24.390;2023-03-26T15:30:54;93818.81;;;14.44;33.08
32243;BME280;18731;42.830;24.390;2023-03-26T15:55:02;93824.69;;;13.33;38.51
32243;BME280;18731;42.830;24.390;2023-03-26T15:57:38;93827.00;;;13.35;39.83
32243;BME280;18731;42.830;24.390;2023-03-26T16:00:20;93813.59;;;13.12;39.40
32243;BME280;18731;42.830;24.390;2023-03-26T16:06:02;93833.63;;;13.18;40.64
32243;BME280;18731;42.830;24.390;2023-03-26T16:14:16;93842.97;;;13.28;40.11
32243;BME280;18731;42.830;24.390;2023-03-26T16:16:56;93851.31;;;13.23;39.47
32243;BME280;18731;42.830;24.390;2023-03-26T16:19:47;93855.91;;;13.22;40.32
32243;BME280;18731;42.830;24.390;2023-03-26T16:27:42;93860.28;;;13.11;41.38
32243;BME280;18731;42.830;24.390;2023-03-26T16:30:29;93860.44;;;12.99;42.86
32243;BME280;18731;42.830;24.390;2023-03-26T16:33:09;93843.59;;;12.75;41.93
32243;BME280;18731;42.830;24.390;2023-03-26T16:35:45;93866.69;;;12.83;42.51
32243;BME280;18731;42.830;24.390;2023-03-26T16:38:22;93862.69;;;12.74;44.50
32243;BME280;18731;42.830;24.390;2023-03-26T16:54:25;93884.44;;;12.11;44.60
32243;BME280;18731;42.830;24.390;2023-03-26T16:56:59;93884.31;;;12.04;45.82
32243;BME280;18731;42.830;24.390;2023-03-26T17:02:40;93894.47;;;11.79;47.96
32243;BME280;18731;42.830;24.390;2023-03-26T17:05:18;93889.13;;;11.79;46.80
32243;BME280;18731;42.830;24.390;2023-03-26T17:08:00;93893.44;;;11.68;47.45
32243;BME280;18731;42.830;24.390;2023-03-26T17:10:40;93897.69;;;11.53;47.86
32243;BME280;18731;42.830;24.390;2023-03-26T17:13:20;93892.19;;;11.46;46.97
32243;BME280;18731;42.830;24.390;2023-03-26T17:15:59;93898.84;;;11.36;47.40
32243;BME280;18731;42.830;24.390;2023-03-26T17:21:40;93917.47;;;11.17;48.88
32243;BME280;18731;42.830;24.390;2023-03-26T17:24:28;93923.75;;;11.09;48.29
32243;BME280;18731;42.830;24.390;2023-03-26T17:27:15;93921.50;;;11.11;47.95
32243;BME280;18731;42.830;24.390;2023-03-26T17:32:16;93936.31;;;10.92;49.48
32243;BME280;18731;42.830;24.390;2023-03-26T17:34:58;93931.72;;;10.77;50.06
32243;BME280;18731;42.830;24.390;2023-03-26T17:37:44;93926.09;;;10.67;50.65
32243;BME280;18731;42.830;24.390;2023-03-26T17:40:43;93947.81;;;10.65;50.46
32243;BME280;18731;42.830;24.390;2023-03-26T17:43:11;93945.63;;;10.55;49.10
32243;BME280;18731;42.830;24.390;2023-03-26T17:45:38;93950.00;;;10.47;50.06
32243;BME280;18731;42.830;24.390;2023-03-26T17:48:14;93952.31;;;10.49;51.34
32243;BME280;18731;42.830;24.390;2023-03-26T17:50:49;93958.78;;;10.36;52.80
32243;BME280;18731;42.830;24.390;2023-03-26T17:53:23;93959.03;;;10.30;53.14
32243;BME280;18731;42.830;24.390;2023-03-26T17:55:51;93956.69;;;10.17;53.13
32243;BME280;18731;42.830;24.390;2023-03-26T17:58:27;93960.38;;;10.12;52.58
32243;BME280;18731;42.830;24.390;2023-03-26T18:01:52;93969.72;;;10.06;53.60
32243;BME280;18731;42.830;24.390;2023-03-26T18:03:55;93961.50;;;9.99;54.33
32243;BME280;18731;42.830;24.390;2023-03-26T18:07:25;93965.28;;;9.98;53.38
32243;BME280;18731;42.830;24.390;2023-03-26T18:17:45;93958.19;;;9.90;53.03
32243;BME280;18731;42.830;24.390;2023-03-26T18:20:23;93960.09;;;9.89;53.00
32243;BME280;18731;42.830;24.390;2023-03-26T18:22:51;93956.09;;;9.83;54.13
32243;BME280;18731;42.830;24.390;2023-03-26T18:25:29;93947.13;;;9.76;54.72
32243;BME280;18731;42.830;24.390;2023-03-26T18:27:56;93949.78;;;9.76;54.94
32243;BME280;18731;42.830;24.390;2023-03-26T18:30:24;93960.00;;;9.74;55.21
32243;BME280;18731;42.830;24.390;2023-03-26T18:33:11;93944.47;;;9.63;54.66
32243;BME280;18731;42.830;24.390;2023-03-26T18:35:48;93953.78;;;9.57;55.17
32243;BME280;18731;42.830;24.390;2023-03-26T18:38:18;93955.78;;;9.36;56.03
32243;BME280;18731;42.830;24.390;2023-03-26T18:40:46;93961.78;;;9.33;56.04
32243;BME280;18731;42.830;24.390;2023-03-26T18:43:17;93959.34;;;9.40;55.70
32243;BME280;18731;42.830;24.390;2023-03-26T18:45:46;93952.91;;;9.41;55.57
32243;BME280;18731;42.830;24.390;2023-03-26T18:48:16;93950.91;;;9.38;56.04
32243;BME280;18731;42.830;24.390;2023-03-26T18:50:45;93946.34;;;9.26;55.97
32243;BME280;18731;42.830;24.390;2023-03-26T18:53:17;93938.91;;;9.20;56.17
32243;BME280;18731;42.830;24.390;2023-03-26T18:55:46;93933.25;;;9.21;56.07
32243;BME280;18731;42.830;24.390;2023-03-26T18:58:34;93927.03;;;9.17;56.40
32243;BME280;18731;42.830;24.390;2023-03-26T19:01:08;93927.16;;;9.21;56.72
32243;BME280;18731;42.830;24.390;2023-03-26T19:03:37;93918.72;;;9.19;57.06
32243;BME280;18731;42.830;24.390;2023-03-26T19:06:09;93916.06;;;9.19;56.66
32243;BME280;18731;42.830;24.390;2023-03-26T19:08:38;93921.38;;;9.19;54.75
32243;BME280;18731;42.830;24.390;2023-03-26T19:11:07;93904.97;;;9.17;56.60
32243;BME280;18731;42.830;24.390;2023-03-26T19:13:35;93904.53;;;9.15;57.64
32243;BME280;18731;42.830;24.390;2023-03-26T19:16:15;93904.84;;;9.13;57.15
32243;BME280;18731;42.830;24.390;2023-03-26T19:18:43;93891.53;;;9.01;56.98
32243;BME280;18731;42.830;24.390;2023-03-26T19:21:09;93901.19;;;9.06;56.23
32243;BME280;18731;42.830;24.390;2023-03-26T19:23:39;93901.41;;;9.00;56.44
32243;BME280;18731;42.830;24.390;2023-03-26T19:26:08;93891.66;;;9.05;55.67
32243;BME280;18731;42.830;24.390;2023-03-26T19:28:39;93886.34;;;9.05;55.65
32243;BME280;18731;42.830;24.390;2023-03-26T19:31:07;93884.22;;;9.10;56.30
32243;BME280;18731;42.830;24.390;2023-03-26T19:33:36;93883.22;;;9.02;57.34
32243;BME280;18731;42.830;24.390;2023-03-26T19:39:22;93895.53;;;8.95;56.73
32243;BME280;18731;42.830;24.390;2023-03-26T19:41:32;93882.09;;;8.91;57.07
32243;BME280;18731;42.830;24.390;2023-03-26T19:44:15;93887.66;;;8.98;57.04
32243;BME280;18731;42.830;24.390;2023-03-26T19:46:46;93896.31;;;8.95;57.43
32243;BME280;18731;42.830;24.390;2023-03-26T19:49:26;93896.31;;;8.95;57.74
32243;BME280;18731;42.830;24.390;2023-03-26T19:52:02;93891.19;;;8.90;57.61
32243;BME280;18731;42.830;24.390;2023-03-26T19:54:28;93883.00;;;8.83;57.65
32243;BME280;18731;42.830;24.390;2023-03-26T19:56:54;93878.00;;;8.82;58.56
32243;BME280;18731;42.830;24.390;2023-03-26T19:59:20;93874.53;;;8.69;58.56
32243;BME280;18731;42.830;24.390;2023-03-26T20:01:45;93869.00;;;8.74;56.64
32243;BME280;18731;42.830;24.390;2023-03-26T20:04:11;93878.66;;;8.79;57.52
32243;BME280;18731;42.830;24.390;2023-03-26T20:06:37;93863.00;;;8.65;57.47
32243;BME280;18731;42.830;24.390;2023-03-26T20:09:07;93837.50;;;8.52;57.67
32243;BME280;18731;42.830;24.390;2023-03-26T20:11:36;93875.31;;;8.69;58.46
32243;BME280;18731;42.830;24.390;2023-03-26T20:14:12;93874.88;;;8.67;57.84
32243;BME280;18731;42.830;24.390;2023-03-26T20:16:38;93869.00;;;8.62;57.64
32243;BME280;18731;42.830;24.390;2023-03-26T20:19:04;93873.50;;;8.49;58.84
32243;BME280;18731;42.830;24.390;2023-03-26T20:21:31;93868.94;;;8.37;59.22
32243;BME280;18731;42.830;24.390;2023-03-26T20:23:59;93858.75;;;8.40;58.96
32243;BME280;18731;42.830;24.390;2023-03-26T20:26:25;93862.56;;;8.30;59.63
32243;BME280;18731;42.830;24.390;2023-03-26T20:28:51;93857.94;;;8.06;60.03
32243;BME280;18731;42.830;24.390;2023-03-26T20:31:24;93852.88;;;8.13;59.39
32243;BME280;18731;42.830;24.390;2023-03-26T20:33:52;93851.19;;;8.09;59.38
32243;BME280;18731;42.830;24.390;2023-03-26T20:36:18;93839.34;;;8.06;59.19
32243;BME280;18731;42.830;24.390;2023-03-26T20:38:45;93814.72;;;7.97;59.31
32243;BME280;18731;42.830;24.390;2023-03-26T20:41:19;93830.72;;;8.09;59.74
32243;BME280;18731;42.830;24.390;2023-03-26T20:43:46;93827.81;;;8.02;60.62
32243;BME280;18731;42.830;24.390;2023-03-26T20:46:18;93831.66;;;7.92;61.13
32243;BME280;18731;42.830;24.390;2023-03-26T20:48:44;93816.56;;;7.84;60.76
32243;BME280;18731;42.830;24.390;2023-03-26T20:51:12;93828.09;;;7.88;60.33
32243;BME280;18731;42.830;24.390;2023-03-26T20:53:40;93828.53;;;7.90;60.55
32243;BME280;18731;42.830;24.390;2023-03-26T20:56:12;93803.78;;;7.78;61.15
32243;BME280;18731;42.830;24.390;2023-03-26T20:58:40;93802.88;;;7.73;60.48
32243;BME280;18731;42.830;24.390;2023-03-26T21:01:10;93822.53;;;7.81;60.54
32243;BME280;18731;42.830;24.390;2023-03-26T21:03:37;93819.72;;;7.78;60.09
32243;BME280;18731;42.830;24.390;2023-03-26T21:06:05;93806.78;;;7.76;59.60
32243;BME280;18731;42.830;24.390;2023-03-26T21:08:36;93813.50;;;7.73;59.85